Time;durP1;ratioP1;P1;durP2;ratioP2;P2;SDS_P1;SDS_P2;PMS_P1;PMS_P2;Temp;Humidity;BMP_temperature;BMP_pressure;BME280_temperature;BME280_humidity;BME280_pressure;Samples;Min_cycle;Max_cycle;Signal;HPM_P1;HPM_P2
2022/02/17 00:01:52;;;;;;;0.40;0.40;;;;;;;;;;5091749;28;20012;-77
2022/02/17 00:04:18;;;;;;;0.40;0.40;;;;;;;;;;5087209;28;20096;-79
2022/02/17 00:06:43;;;;;;;0.40;0.40;;;;;;;;;;5078518;28;20380;-78
2022/02/17 00:09:09;;;;;;;0.30;0.30;;;;;;;;;;5057859;28;20477;-77
2022/02/17 00:11:34;;;;;;;0.30;0.30;;;;;;;;;;5078110;28;20512;-79
2022/02/17 00:14:00;;;;;;;0.30;0.30;;;;;;;;;;5077321;28;20453;-77
2022/02/17 00:16:25;;;;;;;0.28;0.28;;;;;;;;;;5057164;28;20441;-78
2022/02/17 00:18:51;;;;;;;1.08;0.40;;;;;;;;;;5079249;28;20032;-79
2022/02/17 00:21:18;;;;;;;0.30;0.30;;;;;;;;;;5079684;28;20028;-78
2022/02/17 00:23:47;;;;;;;0.50;0.50;;;;;;;;;;5079814;28;20027;-79
2022/02/17 00:26:13;;;;;;;0.40;0.40;;;;;;;;;;5076233;28;20064;-78
2022/02/17 00:28:38;;;;;;;0.40;0.40;;;;;;;;;;5061714;28;20044;-77
2022/02/17 00:31:03;;;;;;;0.30;0.30;;;;;;;;;;5078542;28;20024;-78
2022/02/17 00:33:32;;;;;;;0.30;0.30;;;;;;;;;;5079907;28;20028;-78
2022/02/17 00:35:58;;;;;;;0.30;0.30;;;;;;;;;;5078566;28;20016;-77
2022/02/17 00:38:26;;;;;;;0.30;0.30;;;;;;;;;;5077640;28;20040;-78
2022/02/17 00:40:51;;;;;;;0.30;0.30;;;;;;;;;;5077373;28;20025;-78
2022/02/17 00:43:17;;;;;;;0.63;0.40;;;;;;;;;;5080699;28;20032;-77
2022/02/17 00:45:42;;;;;;;0.40;0.40;;;;;;;;;;5078236;28;20028;-77
2022/02/17 00:48:07;;;;;;;0.45;0.40;;;;;;;;;;5083534;28;20079;-78
2022/02/17 00:50:33;;;;;;;0.30;0.30;;;;;;;;;;5062896;28;20115;-79
2022/02/17 00:52:59;;;;;;;0.32;0.32;;;;;;;;;;5079198;28;20070;-78
2022/02/17 00:55:26;;;;;;;0.30;0.30;;;;;;;;;;5076864;28;20036;-78
2022/02/17 00:57:52;;;;;;;1.08;0.30;;;;;;;;;;5077039;28;20032;-78
2022/02/17 01:00:18;;;;;;;0.40;0.40;;;;;;;;;;5082697;28;20031;-77
2022/02/17 01:02:43;;;;;;;0.43;0.30;;;;;;;;;;5079067;28;20093;-77
2022/02/17 01:05:09;;;;;;;0.30;0.30;;;;;;;;;;5059326;28;20025;-78
2022/02/17 01:07:34;;;;;;;0.30;0.30;;;;;;;;;;5059056;28;20077;-79
2022/02/17 01:09:59;;;;;;;0.30;0.30;;;;;;;;;;5077438;28;20480;-78
2022/02/17 01:12:26;;;;;;;0.30;0.30;;;;;;;;;;5077182;28;20579;-78
2022/02/17 01:14:53;;;;;;;0.47;0.32;;;;;;;;;;5059610;28;20095;-77
2022/02/17 01:17:23;;;;;;;0.57;0.30;;;;;;;;;;5075074;28;20032;-78
2022/02/17 01:19:49;;;;;;;0.30;0.30;;;;;;;;;;5058113;28;20036;-77
2022/02/17 01:22:15;;;;;;;0.30;0.30;;;;;;;;;;5078779;28;20499;-78
2022/02/17 01:24:43;;;;;;;0.43;0.30;;;;;;;;;;5080721;28;20047;-77
2022/02/17 01:27:08;;;;;;;0.35;0.30;;;;;;;;;;5058567;28;20089;-78
2022/02/17 01:29:35;;;;;;;0.20;0.20;;;;;;;;;;5075587;28;20032;-77
2022/02/17 01:32:00;;;;;;;0.30;0.30;;;;;;;;;;5075479;28;20122;-78
2022/02/17 01:34:26;;;;;;;0.30;0.30;;;;;;;;;;5078526;28;20024;-78
2022/02/17 01:36:51;;;;;;;0.43;0.43;;;;;;;;;;5059517;28;20124;-78
2022/02/17 01:39:16;;;;;;;0.98;0.43;;;;;;;;;;5062207;28;20072;-77
2022/02/17 01:41:42;;;;;;;0.40;0.40;;;;;;;;;;5056223;28;20029;-78
2022/02/17 01:44:07;;;;;;;1.25;0.30;;;;;;;;;;5057930;28;20028;-78
2022/02/17 01:46:37;;;;;;;0.47;0.43;;;;;;;;;;5062210;28;20039;-77
2022/02/17 01:49:04;;;;;;;0.47;0.47;;;;;;;;;;5055186;28;20574;-77
2022/02/17 01:51:32;;;;;;;0.40;0.40;;;;;;;;;;5058746;28;20040;-77
2022/02/17 01:54:06;;;;;;;0.30;0.30;;;;;;;;;;5058794;28;20070;-77
2022/02/17 01:56:34;;;;;;;0.63;0.40;;;;;;;;;;5057892;28;20029;-76
2022/02/17 01:59:04;;;;;;;0.77;0.40;;;;;;;;;;5078361;28;20512;-77
2022/02/17 02:01:31;;;;;;;0.40;0.40;;;;;;;;;;5079116;28;20021;-78
2022/02/17 02:03:57;;;;;;;0.68;0.40;;;;;;;;;;5068913;28;20107;-77
2022/02/17 02:06:22;;;;;;;0.40;0.40;;;;;;;;;;5070422;28;20195;-76
2022/02/17 02:08:48;;;;;;;0.45;0.45;;;;;;;;;;5057647;28;20048;-79
2022/02/17 02:11:14;;;;;;;0.40;0.40;;;;;;;;;;5058536;28;20498;-78
2022/02/17 02:13:41;;;;;;;0.50;0.40;;;;;;;;;;5058181;28;20052;-78
2022/02/17 02:16:07;;;;;;;0.73;0.50;;;;;;;;;;5072879;28;20031;-78
2022/02/17 02:18:33;;;;;;;0.40;0.40;;;;;;;;;;5060074;28;20028;-78
2022/02/17 02:21:03;;;;;;;0.40;0.40;;;;;;;;;;5072591;28;20372;-79
2022/02/17 02:23:33;;;;;;;4.35;0.40;;;;;;;;;;5081418;28;20066;-78
2022/02/17 02:25:59;;;;;;;1.25;1.15;;;;;;;;;;5075527;28;20502;-78
2022/02/17 02:28:30;;;;;;;0.50;0.50;;;;;;;;;;5060684;28;20136;-78
2022/02/17 02:30:56;;;;;;;4.53;0.50;;;;;;;;;;5074257;28;20497;-77
2022/02/17 02:33:25;;;;;;;0.38;0.38;;;;;;;;;;5056052;28;20119;-77
2022/02/17 02:35:55;;;;;;;0.47;0.47;;;;;;;;;;5079258;28;20499;-78
2022/02/17 02:38:22;;;;;;;0.40;0.40;;;;;;;;;;5075397;28;20489;-78
2022/02/17 02:40:50;;;;;;;0.30;0.30;;;;;;;;;;5078340;28;20028;-78
2022/02/17 02:43:16;;;;;;;0.30;0.30;;;;;;;;;;5060859;28;20016;-77
2022/02/17 02:45:47;;;;;;;0.40;0.38;;;;;;;;;;5074436;28;20047;-77
2022/02/17 02:48:14;;;;;;;0.28;0.28;;;;;;;;;;5058311;28;20435;-78
2022/02/17 02:50:43;;;;;;;0.40;0.40;;;;;;;;;;5077813;28;20021;-78
2022/02/17 02:53:18;;;;;;;0.30;0.30;;;;;;;;;;5060743;28;20028;-78
2022/02/17 02:55:46;;;;;;;0.30;0.30;;;;;;;;;;5071822;28;20090;-77
2022/02/17 02:58:15;;;;;;;0.30;0.30;;;;;;;;;;5092994;28;20052;-77
2022/02/17 03:00:44;;;;;;;0.38;0.38;;;;;;;;;;5078143;28;20476;-78
2022/02/17 03:03:12;;;;;;;0.63;0.63;;;;;;;;;;5054411;28;20053;-77
2022/02/17 03:05:41;;;;;;;0.40;0.40;;;;;;;;;;5055637;28;20031;-78
2022/02/17 03:08:07;;;;;;;0.40;0.40;;;;;;;;;;5061477;28;20136;-76
2022/02/17 03:10:35;;;;;;;0.30;0.30;;;;;;;;;;5080957;28;20032;-76
2022/02/17 03:13:04;;;;;;;0.55;0.40;;;;;;;;;;5084651;28;20056;-78
2022/02/17 03:15:30;;;;;;;0.40;0.40;;;;;;;;;;5058272;28;20024;-79
2022/02/17 03:17:58;;;;;;;0.55;0.40;;;;;;;;;;5080832;28;20124;-79
2022/02/17 03:20:23;;;;;;;0.30;0.30;;;;;;;;;;5078466;28;20103;-77
2022/02/17 03:22:49;;;;;;;0.32;0.32;;;;;;;;;;5078351;28;20047;-78
2022/02/17 03:25:15;;;;;;;0.40;0.40;;;;;;;;;;5060317;28;20537;-78
2022/02/17 03:27:42;;;;;;;0.40;0.40;;;;;;;;;;5059782;28;20032;-78
2022/02/17 03:30:12;;;;;;;0.63;0.40;;;;;;;;;;5057026;28;20404;-78
2022/02/17 03:32:38;;;;;;;0.90;0.40;;;;;;;;;;5071203;28;20029;-78
2022/02/17 03:35:05;;;;;;;0.43;0.30;;;;;;;;;;5058038;28;20031;-79
2022/02/17 03:37:31;;;;;;;0.40;0.40;;;;;;;;;;5076435;28;20123;-79
2022/02/17 03:39:56;;;;;;;0.43;0.35;;;;;;;;;;5062097;28;20407;-78
2022/02/17 03:42:22;;;;;;;0.40;0.40;;;;;;;;;;5078675;28;20020;-76
2022/02/17 03:44:47;;;;;;;0.30;0.30;;;;;;;;;;5055537;28;20108;-78
2022/02/17 03:47:13;;;;;;;0.30;0.30;;;;;;;;;;5075558;28;20468;-78
2022/02/17 03:49:41;;;;;;;0.40;0.40;;;;;;;;;;5057353;28;20017;-77
2022/02/17 03:52:09;;;;;;;0.30;0.30;;;;;;;;;;5067554;28;20059;-78
2022/02/17 03:54:34;;;;;;;1.75;0.60;;;;;;;;;;5079461;28;20036;-77
2022/02/17 03:57:00;;;;;;;0.40;0.40;;;;;;;;;;5076192;28;20861;-78
2022/02/17 03:59:25;;;;;;;0.35;0.35;;;;;;;;;;5079725;28;20016;-77
2022/02/17 04:01:51;;;;;;;0.30;0.30;;;;;;;;;;5072742;28;20029;-77
2022/02/17 04:04:16;;;;;;;0.60;0.60;;;;;;;;;;5074591;28;20028;-78
2022/02/17 04:06:42;;;;;;;1.13;0.40;;;;;;;;;;5055929;28;20028;-77
2022/02/17 04:09:08;;;;;;;0.50;0.40;;;;;;;;;;5074958;28;20373;-78
2022/02/17 04:11:34;;;;;;;0.40;0.40;;;;;;;;;;5056245;28;20032;-78
2022/02/17 04:14:02;;;;;;;0.47;0.47;;;;;;;;;;5078003;28;20033;-78
2022/02/17 04:16:29;;;;;;;0.85;0.40;;;;;;;;;;5073436;28;20024;-77
2022/02/17 04:18:58;;;;;;;0.32;0.32;;;;;;;;;;5074863;28;20024;-78
2022/02/17 04:21:23;;;;;;;0.60;0.50;;;;;;;;;;5064223;28;20069;-77
2022/02/17 04:23:51;;;;;;;0.35;0.35;;;;;;;;;;5074331;28;20107;-78
2022/02/17 04:26:19;;;;;;;0.50;0.40;;;;;;;;;;5077125;28;20031;-78
2022/02/17 04:28:45;;;;;;;1.33;0.55;;;;;;;;;;5076984;28;20454;-78
2022/02/17 04:31:12;;;;;;;0.40;0.40;;;;;;;;;;5079125;28;20226;-77
2022/02/17 04:33:42;;;;;;;0.35;0.32;;;;;;;;;;5077192;28;20044;-77
2022/02/17 04:36:07;;;;;;;;;;;;;;;;;;5079994;28;20023;-77
2022/02/17 04:38:33;;;;;;;0.40;0.40;;;;;;;;;;5075523;28;19920;-77
2022/02/17 04:43:47;;;;;;;0.40;0.40;;;;;;;;;;5074599;28;20020;-77
2022/02/17 04:46:13;;;;;;;0.50;0.50;;;;;;;;;;5077767;28;20032;-78
2022/02/17 04:48:39;;;;;;;0.85;0.50;;;;;;;;;;5078731;28;20028;-78
2022/02/17 04:51:04;;;;;;;0.40;0.40;;;;;;;;;;5076049;28;20029;-77
2022/02/17 04:53:31;;;;;;;4.43;0.50;;;;;;;;;;5084945;28;20028;-77
2022/02/17 04:55:57;;;;;;;0.60;0.50;;;;;;;;;;5075889;28;20033;-78
2022/02/17 04:58:25;;;;;;;0.40;0.40;;;;;;;;;;5063896;28;20097;-78
2022/02/17 05:00:51;;;;;;;0.65;0.60;;;;;;;;;;5061330;28;20096;-78
2022/02/17 05:03:17;;;;;;;0.40;0.40;;;;;;;;;;5076074;28;20028;-78
2022/02/17 05:05:42;;;;;;;0.40;0.40;;;;;;;;;;5075436;28;20499;-78
2022/02/17 05:08:08;;;;;;;1.75;0.40;;;;;;;;;;5079265;28;20056;-78
2022/02/17 05:10:34;;;;;;;0.68;0.30;;;;;;;;;;5077920;28;20044;-76
2022/02/17 05:13:02;;;;;;;0.90;0.55;;;;;;;;;;5057637;28;20498;-78
2022/02/17 05:15:30;;;;;;;3.67;1.40;;;;;;;;;;5073896;28;20380;-79
2022/02/17 05:17:57;;;;;;;1.27;0.80;;;;;;;;;;5073160;28;20468;-77
2022/02/17 05:20:22;;;;;;;1.13;0.70;;;;;;;;;;5077542;28;20203;-78
2022/02/17 05:22:48;;;;;;;0.60;0.60;;;;;;;;;;5060724;28;20538;-77
2022/02/17 05:25:14;;;;;;;0.50;0.50;;;;;;;;;;5060147;28;20013;-76
2022/02/17 05:27:42;;;;;;;1.38;0.60;;;;;;;;;;5057639;28;20062;-77
2022/02/17 05:30:07;;;;;;;0.88;0.70;;;;;;;;;;5069559;28;20402;-77
2022/02/17 05:32:39;;;;;;;0.40;0.40;;;;;;;;;;5077617;28;20032;-77
2022/02/17 05:35:07;;;;;;;0.50;0.50;;;;;;;;;;5065726;28;20047;-78
2022/02/17 05:37:36;;;;;;;0.60;0.60;;;;;;;;;;5076071;28;20467;-78
2022/02/17 05:40:03;;;;;;;0.80;0.70;;;;;;;;;;5076438;28;20024;-78
2022/02/17 05:42:31;;;;;;;0.55;0.50;;;;;;;;;;5059022;28;20111;-78
2022/02/17 05:44:56;;;;;;;1.08;0.60;;;;;;;;;;5056853;28;20136;-78
2022/02/17 05:47:22;;;;;;;1.35;0.60;;;;;;;;;;5078122;28;20512;-78
2022/02/17 05:49:47;;;;;;;0.50;0.50;;;;;;;;;;5078328;28;20077;-77
2022/02/17 05:52:12;;;;;;;0.60;0.60;;;;;;;;;;5098079;28;20012;-77
2022/02/17 05:54:38;;;;;;;0.65;0.65;;;;;;;;;;5082472;28;20037;-77
2022/02/17 05:57:04;;;;;;;0.60;0.60;;;;;;;;;;5078398;28;20035;-78
2022/02/17 05:59:29;;;;;;;0.60;0.60;;;;;;;;;;5067513;28;20036;-78
2022/02/17 06:01:55;;;;;;;0.70;0.70;;;;;;;;;;5072411;28;20023;-76
2022/02/17 06:04:23;;;;;;;0.80;0.80;;;;;;;;;;5075563;28;20569;-78
2022/02/17 06:06:48;;;;;;;1.75;0.50;;;;;;;;;;5074472;28;20107;-78
2022/02/17 06:09:14;;;;;;;4.90;0.80;;;;;;;;;;5054691;28;20321;-77
2022/02/17 06:11:42;;;;;;;0.70;0.70;;;;;;;;;;5071499;28;20070;-77
2022/02/17 06:14:10;;;;;;;0.98;0.98;;;;;;;;;;5057413;28;20484;-77
2022/02/17 06:16:35;;;;;;;5.00;1.65;;;;;;;;;;5074607;28;20082;-78
2022/02/17 06:19:01;;;;;;;1.27;0.77;;;;;;;;;;5060630;28;20024;-76
2022/02/17 06:21:26;;;;;;;1.02;0.93;;;;;;;;;;5064307;28;20020;-78
2022/02/17 06:23:52;;;;;;;0.80;0.80;;;;;;;;;;5061529;28;20162;-77
2022/02/17 06:26:18;;;;;;;3.38;1.20;;;;;;;;;;5074731;28;20396;-79
2022/02/17 06:28:48;;;;;;;1.05;0.95;;;;;;;;;;5059488;28;20037;-78
2022/02/17 06:31:13;;;;;;;1.27;1.17;;;;;;;;;;5077183;28;20032;-78
2022/02/17 06:33:44;;;;;;;1.35;1.25;;;;;;;;;;5054777;28;20062;-76
2022/02/17 06:36:15;;;;;;;1.13;1.00;;;;;;;;;;5072013;28;20046;-75
2022/02/17 06:38:43;;;;;;;3.40;1.30;;;;;;;;;;5069705;28;20154;-77
2022/02/17 06:41:14;;;;;;;1.80;1.27;;;;;;;;;;5076734;28;20027;-76
2022/02/17 06:43:39;;;;;;;5.20;2.35;;;;;;;;;;5071475;28;20106;-76
2022/02/17 06:46:05;;;;;;;1.98;1.77;;;;;;;;;;5075043;28;20516;-77
2022/02/17 06:48:30;;;;;;;2.67;1.70;;;;;;;;;;5073981;28;20028;-77
2022/02/17 06:50:57;;;;;;;1.52;1.42;;;;;;;;;;5071356;28;20496;-76
2022/02/17 06:53:25;;;;;;;1.95;1.30;;;;;;;;;;5055032;28;20404;-76
2022/02/17 06:55:50;;;;;;;1.30;1.20;;;;;;;;;;5066515;28;20039;-75
2022/02/17 06:58:18;;;;;;;1.00;1.00;;;;;;;;;;5054914;28;20029;-76
2022/02/17 07:00:44;;;;;;;0.98;0.98;;;;;;;;;;5074402;28;20021;-77
2022/02/17 07:03:09;;;;;;;4.57;1.40;;;;;;;;;;5071610;28;20026;-78
2022/02/17 07:05:36;;;;;;;2.90;1.30;;;;;;;;;;5073780;28;20492;-78
2022/02/17 07:08:02;;;;;;;5.28;2.03;;;;;;;;;;5073900;28;20205;-77
2022/02/17 07:13:11;;;;;;;4.93;1.90;;;;;;;;;;5075691;28;20063;-75
2022/02/17 07:15:37;;;;;;;1.40;1.30;;;;;;;;;;5072328;28;20024;-78
2022/02/17 07:18:04;;;;;;;2.70;1.67;;;;;;;;;;5075893;28;20070;-76
2022/02/17 07:20:34;;;;;;;2.88;1.33;;;;;;;;;;5076815;28;20446;-77
2022/02/17 07:22:59;;;;;;;1.98;1.48;;;;;;;;;;5071257;28;20495;-77
2022/02/17 07:25:25;;;;;;;4.50;1.88;;;;;;;;;;5072906;28;20024;-75
2022/02/17 07:27:50;;;;;;;2.13;1.00;;;;;;;;;;5069254;28;20028;-76
2022/02/17 07:30:16;;;;;;;1.88;0.90;;;;;;;;;;5062124;28;20444;-75
2022/02/17 07:32:44;;;;;;;3.17;1.05;;;;;;;;;;5054638;28;20020;-76
2022/02/17 07:35:11;;;;;;;2.00;0.90;;;;;;;;;;5065735;28;20036;-76
2022/02/17 07:37:37;;;;;;;2.92;1.25;;;;;;;;;;5067706;28;20064;-76
2022/02/17 07:40:05;;;;;;;5.25;2.58;;;;;;;;;;5073852;28;20110;-76
2022/02/17 07:42:31;;;;;;;2.20;2.00;;;;;;;;;;5050431;28;20158;-76
2022/02/17 07:44:56;;;;;;;1.55;1.20;;;;;;;;;;5055878;28;20115;-76
2022/02/17 07:47:23;;;;;;;1.20;1.02;;;;;;;;;;5056042;28;20158;-74
2022/02/17 07:49:49;;;;;;;3.58;1.35;;;;;;;;;;5050703;28;20150;-74
2022/02/17 07:52:15;;;;;;;2.70;1.38;;;;;;;;;;5067613;28;20017;-73
2022/02/17 07:54:41;;;;;;;4.90;1.20;;;;;;;;;;5050362;28;20157;-77
2022/02/17 07:57:07;;;;;;;6.20;1.27;;;;;;;;;;5054251;28;20107;-77
2022/02/17 07:59:32;;;;;;;3.95;1.27;;;;;;;;;;5050238;28;20035;-76
2022/02/17 08:01:58;;;;;;;1.80;1.17;;;;;;;;;;5049066;28;20024;-74
2022/02/17 08:04:25;;;;;;;3.33;1.38;;;;;;;;;;5049112;28;20025;-74
2022/02/17 08:06:51;;;;;;;3.65;1.67;;;;;;;;;;5050176;28;20758;-74
2022/02/17 08:09:16;;;;;;;3.75;1.50;;;;;;;;;;5073312;28;20040;-74
2022/02/17 08:11:44;;;;;;;9.63;2.65;;;;;;;;;;5072737;28;20027;-74
2022/02/17 08:14:09;;;;;;;12.93;4.57;;;;;;;;;;5071419;28;20028;-74
2022/02/17 08:16:37;;;;;;;7.70;2.03;;;;;;;;;;5056141;28;20484;-75
2022/02/17 08:19:05;;;;;;;2.28;1.30;;;;;;;;;;5071010;28;20024;-75
2022/02/17 08:21:31;;;;;;;7.10;2.10;;;;;;;;;;5073420;28;20024;-74
2022/02/17 08:23:56;;;;;;;7.47;1.80;;;;;;;;;;5073193;28;20039;-75
2022/02/17 08:26:22;;;;;;;6.18;1.90;;;;;;;;;;5075349;28;20052;-75
2022/02/17 08:28:55;;;;;;;13.52;2.00;;;;;;;;;;5071243;28;20476;-76
2022/02/17 08:31:21;;;;;;;8.18;1.70;;;;;;;;;;5050626;28;20141;-74
2022/02/17 08:33:48;;;;;;;8.48;2.13;;;;;;;;;;5054019;28;20171;-73
2022/02/17 08:36:14;;;;;;;8.45;2.53;;;;;;;;;;5076465;28;20114;-74
2022/02/17 08:38:45;;;;;;;7.57;2.00;;;;;;;;;;5067067;28;20036;-75
2022/02/17 08:41:11;;;;;;;12.70;2.42;;;;;;;;;;5073662;28;20024;-74
2022/02/17 08:43:36;;;;;;;7.88;2.00;;;;;;;;;;5075747;28;20033;-74
2022/02/17 08:46:02;;;;;;;9.38;2.08;;;;;;;;;;5076281;28;20025;-74
2022/02/17 08:48:28;;;;;;;11.10;2.33;;;;;;;;;;5083125;28;20035;-73
2022/02/17 08:50:54;;;;;;;6.35;1.90;;;;;;;;;;5069070;28;20024;-75
2022/02/17 08:53:20;;;;;;;11.02;3.17;;;;;;;;;;5075186;28;20523;-74
2022/02/17 08:55:45;;;;;;;9.43;3.60;;;;;;;;;;5078929;28;20621;-75
2022/02/17 08:58:11;;;;;;;5.57;1.73;;;;;;;;;;5070579;28;20199;-73
2022/02/17 09:00:37;;;;;;;7.38;2.42;;;;;;;;;;5053206;28;20029;-74
2022/02/17 09:03:04;;;;;;;13.07;2.65;;;;;;;;;;5071784;28;20059;-74
2022/02/17 09:05:31;;;;;;;9.10;2.20;;;;;;;;;;5068197;28;20122;-74
2022/02/17 09:07:57;;;;;;;6.82;2.20;;;;;;;;;;5066950;28;20499;-74
2022/02/17 09:10:23;;;;;;;13.23;1.92;;;;;;;;;;5072406;28;20553;-74
2022/02/17 09:12:49;;;;;;;9.80;1.98;;;;;;;;;;5069942;28;20040;-73
2022/02/17 09:15:17;;;;;;;10.50;2.67;;;;;;;;;;5065939;28;20361;-74
2022/02/17 09:17:46;;;;;;;18.60;3.03;;;;;;;;;;5070272;28;20036;-74
2022/02/17 09:20:12;;;;;;;12.68;2.33;;;;;;;;;;5051937;28;20111;-74
2022/02/17 09:22:37;;;;;;;9.88;2.10;;;;;;;;;;5053719;28;20111;-74
2022/02/17 09:25:04;;;;;;;9.40;2.45;;;;;;;;;;5069443;28;20032;-74
2022/02/17 09:27:30;;;;;;;9.00;2.10;;;;;;;;;;5071239;28;20024;-77
2022/02/17 09:29:58;;;;;;;7.10;2.10;;;;;;;;;;5077501;28;20381;-77
2022/02/17 09:32:24;;;;;;;7.53;2.00;;;;;;;;;;5077408;28;20472;-74
2022/02/17 09:34:50;;;;;;;12.75;2.33;;;;;;;;;;5071369;28;20030;-74
2022/02/17 09:37:16;;;;;;;12.95;2.67;;;;;;;;;;5075464;28;20028;-74
2022/02/17 09:39:43;;;;;;;8.10;2.13;;;;;;;;;;5051625;28;20334;-74
2022/02/17 09:42:13;;;;;;;10.90;2.10;;;;;;;;;;5066050;28;20017;-75
2022/02/17 09:44:40;;;;;;;8.75;2.08;;;;;;;;;;5073730;28;20484;-74
2022/02/17 09:47:07;;;;;;;8.95;2.50;;;;;;;;;;5070383;28;20032;-75
2022/02/17 09:49:33;;;;;;;9.00;2.05;;;;;;;;;;5070966;28;20448;-75
2022/02/17 09:51:59;;;;;;;14.32;2.78;;;;;;;;;;5066042;28;20498;-74
2022/02/17 09:54:25;;;;;;;12.23;2.00;;;;;;;;;;5057080;28;20020;-74
2022/02/17 09:56:50;;;;;;;13.45;2.53;;;;;;;;;;5069127;28;20619;-74
2022/02/17 09:59:16;;;;;;;13.35;2.35;;;;;;;;;;5069559;28;20048;-74
2022/02/17 10:02:20;;;;;;;12.13;2.15;;;;;;;;;;5051106;28;20119;-74
2022/02/17 10:04:52;;;;;;;11.15;2.80;;;;;;;;;;5044490;28;20119;-74
2022/02/17 10:07:30;;;;;;;14.38;2.88;;;;;;;;;;5052498;28;20059;-74
2022/02/17 10:10:08;;;;;;;12.00;2.30;;;;;;;;;;5046905;28;20514;-74
2022/02/17 10:12:59;;;;;;;8.93;2.08;;;;;;;;;;5053870;28;20127;-74
2022/02/17 10:15:29;;;;;;;12.48;2.55;;;;;;;;;;5054317;28;20024;-74
2022/02/17 10:18:06;;;;;;;7.88;2.25;;;;;;;;;;5067795;28;20027;-73
2022/02/17 10:21:11;;;;;;;13.52;2.67;;;;;;;;;;5068808;28;20035;-75
2022/02/17 10:23:48;;;;;;;10.98;2.45;;;;;;;;;;5063048;28;20063;-74
2022/02/17 10:26:14;;;;;;;12.65;2.72;;;;;;;;;;5071617;28;20028;-75
2022/02/17 10:28:44;;;;;;;11.75;2.00;;;;;;;;;;5067794;28;20063;-74
2022/02/17 10:31:29;;;;;;;16.65;3.05;;;;;;;;;;5066678;28;20035;-75
2022/02/17 10:33:57;;;;;;;15.63;2.97;;;;;;;;;;5051202;28;20039;-75
2022/02/17 10:36:37;;;;;;;14.38;3.60;;;;;;;;;;5055967;28;20020;-74
2022/02/17 10:39:20;;;;;;;18.92;2.40;;;;;;;;;;5069608;28;20032;-75
2022/02/17 10:41:47;;;;;;;13.35;2.65;;;;;;;;;;5049803;28;20040;-74
2022/02/17 10:44:13;;;;;;;16.65;2.35;;;;;;;;;;5055019;28;20028;-75
2022/02/17 10:46:39;;;;;;;15.23;2.47;;;;;;;;;;5068414;28;20311;-75
2022/02/17 10:49:20;;;;;;;11.82;2.95;;;;;;;;;;5051533;28;20452;-74
2022/02/17 10:51:47;;;;;;;22.27;3.58;;;;;;;;;;5072032;28;20036;-75
2022/02/17 10:54:20;;;;;;;12.52;3.72;;;;;;;;;;5073900;28;20415;-75
2022/02/17 10:56:46;;;;;;;14.57;2.72;;;;;;;;;;5072431;28;20016;-74
2022/02/17 11:02:05;;;;;;;17.95;2.40;;;;;;;;;;5067365;28;20055;-74
2022/02/17 11:04:31;;;;;;;9.10;2.13;;;;;;;;;;5069467;28;20033;-75
2022/02/17 11:06:58;;;;;;;14.80;1.95;;;;;;;;;;5066052;28;20032;-74
2022/02/17 11:09:26;;;;;;;10.30;1.98;;;;;;;;;;5049888;28;20122;-74
2022/02/17 11:11:56;;;;;;;13.02;3.60;;;;;;;;;;5049576;28;20090;-74
2022/02/17 11:14:42;;;;;;;16.85;2.60;;;;;;;;;;5068218;28;20024;-74
2022/02/17 11:17:11;;;;;;;12.70;2.35;;;;;;;;;;5069575;28;20025;-74
2022/02/17 11:19:40;;;;;;;19.80;3.05;;;;;;;;;;5066541;28;20029;-75
2022/02/17 11:22:06;;;;;;;21.88;2.90;;;;;;;;;;5067570;28;20028;-75
2022/02/17 11:24:48;;;;;;;10.68;2.00;;;;;;;;;;5068998;28;20039;-75
2022/02/17 11:27:15;;;;;;;11.13;2.35;;;;;;;;;;5064852;28;20033;-75
2022/02/17 11:29:42;;;;;;;16.65;3.42;;;;;;;;;;5051749;28;20032;-74
2022/02/17 11:32:13;;;;;;;16.08;2.55;;;;;;;;;;5071341;28;20105;-74
2022/02/17 11:34:45;;;;;;;6.97;2.25;;;;;;;;;;5068673;28;20025;-75
2022/02/17 11:37:20;;;;;;;20.27;4.20;;;;;;;;;;5050439;28;20089;-75
2022/02/17 11:40:03;;;;;;;13.93;2.83;;;;;;;;;;5065539;28;20082;-74
2022/02/17 11:42:31;;;;;;;13.57;2.83;;;;;;;;;;5064934;28;20020;-74
2022/02/17 11:45:15;;;;;;;10.32;2.53;;;;;;;;;;5084655;28;20078;-74
2022/02/17 11:48:06;;;;;;;13.32;2.17;;;;;;;;;;5049156;28;20025;-74
2022/02/17 11:50:46;;;;;;;15.35;2.78;;;;;;;;;;5049496;28;20071;-74
2022/02/17 11:53:28;;;;;;;11.32;2.20;;;;;;;;;;5049165;28;20029;-74
2022/02/17 11:56:14;;;;;;;11.20;2.40;;;;;;;;;;5048987;28;20033;-74
2022/02/17 11:58:57;;;;;;;18.38;2.13;;;;;;;;;;5048662;28;20040;-75
2022/02/17 12:01:24;;;;;;;17.40;2.83;;;;;;;;;;5065010;28;20361;-74
2022/02/17 12:04:02;;;;;;;10.30;2.42;;;;;;;;;;5048783;28;20028;-74
2022/02/17 12:06:43;;;;;;;14.93;2.88;;;;;;;;;;5064977;28;20035;-74
2022/02/17 12:09:09;;;;;;;18.73;4.10;;;;;;;;;;5050193;28;20124;-74
2022/02/17 12:11:38;;;;;;;18.20;3.38;;;;;;;;;;5068064;28;20028;-74
2022/02/17 12:14:08;;;;;;;15.38;2.83;;;;;;;;;;5066889;28;20169;-74
2022/02/17 12:16:37;;;;;;;11.70;2.55;;;;;;;;;;5049155;28;20113;-74
2022/02/17 12:19:16;;;;;;;14.07;2.83;;;;;;;;;;5067499;28;20029;-74
2022/02/17 12:21:43;;;;;;;14.35;2.67;;;;;;;;;;5067017;28;20115;-74
2022/02/17 12:24:10;;;;;;;13.75;2.78;;;;;;;;;;5061839;28;20025;-74
2022/02/17 12:26:43;;;;;;;9.40;2.08;;;;;;;;;;5069088;28;20085;-74
2022/02/17 12:29:22;;;;;;;14.32;2.97;;;;;;;;;;5068938;28;20396;-74
2022/02/17 12:31:51;;;;;;;8.70;2.25;;;;;;;;;;5066866;28;20342;-74
2022/02/17 12:34:19;;;;;;;11.98;2.58;;;;;;;;;;5068173;28;20036;-75
2022/02/17 12:36:44;;;;;;;22.08;2.75;;;;;;;;;;5048015;28;20025;-74
2022/02/17 12:39:12;;;;;;;18.88;3.25;;;;;;;;;;5076035;28;20063;-74
2022/02/17 12:41:38;;;;;;;19.90;2.40;;;;;;;;;;5048959;28;20284;-75
2022/02/17 12:44:06;;;;;;;13.63;2.53;;;;;;;;;;5050843;28;20525;-75
2022/02/17 12:46:32;;;;;;;17.30;3.17;;;;;;;;;;5068205;28;20032;-74
2022/02/17 12:49:06;;;;;;;11.45;2.63;;;;;;;;;;5068935;28;20523;-78
2022/02/17 12:51:33;;;;;;;16.15;3.28;;;;;;;;;;5053449;28;20056;-74
2022/02/17 12:54:01;;;;;;;15.57;3.33;;;;;;;;;;5050793;28;20423;-74
2022/02/17 12:56:32;;;;;;;18.27;3.08;;;;;;;;;;5070720;28;20021;-75
2022/02/17 12:59:12;;;;;;;13.93;3.05;;;;;;;;;;5069929;28;20021;-75
2022/02/17 13:01:41;;;;;;;17.98;3.40;;;;;;;;;;5067738;28;20040;-74
2022/02/17 13:04:07;;;;;;;17.70;2.87;;;;;;;;;;5069815;28;20037;-74
2022/02/17 13:06:33;;;;;;;19.33;3.33;;;;;;;;;;5070591;28;20331;-74
2022/02/17 13:09:21;;;;;;;17.58;3.53;;;;;;;;;;5072567;28;20020;-74
2022/02/17 13:11:52;;;;;;;14.77;3.28;;;;;;;;;;5069452;28;20041;-74
2022/02/17 13:14:22;;;;;;;12.43;2.50;;;;;;;;;;5053439;28;20029;-74
2022/02/17 13:16:56;;;;;;;18.88;2.92;;;;;;;;;;5049399;28;20189;-74
2022/02/17 13:19:42;;;;;;;23.23;2.88;;;;;;;;;;5065701;28;20032;-74
2022/02/17 13:22:10;;;;;;;13.98;2.65;;;;;;;;;;5070378;28;20016;-74
2022/02/17 13:24:41;;;;;;;21.38;4.50;;;;;;;;;;5051559;28;20437;-74
2022/02/17 13:27:14;;;;;;;18.33;3.38;;;;;;;;;;5070757;28;20429;-74
2022/02/17 13:30:00;;;;;;;17.98;3.60;;;;;;;;;;5071040;28;20107;-75
2022/02/17 13:32:29;;;;;;;15.18;3.00;;;;;;;;;;5070411;28;20020;-74
2022/02/17 13:35:01;;;;;;;17.05;3.30;;;;;;;;;;5064428;28;20357;-75
2022/02/17 13:37:41;;;;;;;21.05;3.15;;;;;;;;;;5070042;28;20026;-75
2022/02/17 13:40:08;;;;;;;13.13;2.72;;;;;;;;;;5072916;28;20484;-75
2022/02/17 13:42:35;;;;;;;16.88;3.03;;;;;;;;;;5068456;28;20078;-74
2022/02/17 13:45:21;;;;;;;19.20;4.35;;;;;;;;;;5071564;28;20027;-74
2022/02/17 13:47:54;;;;;;;14.98;3.15;;;;;;;;;;5051622;28;20362;-75
2022/02/17 13:50:20;;;;;;;14.32;2.95;;;;;;;;;;5070642;28;20035;-74
2022/02/17 13:53:07;;;;;;;17.25;2.72;;;;;;;;;;5068450;28;20043;-75
2022/02/17 13:55:36;;;;;;;16.40;2.97;;;;;;;;;;5070193;28;20496;-75
2022/02/17 13:58:04;;;;;;;18.38;3.53;;;;;;;;;;5050131;28;20085;-75
2022/02/17 14:00:37;;;;;;;16.05;2.83;;;;;;;;;;5067820;28;20028;-75
2022/02/17 14:03:47;;;;;;;16.02;3.53;;;;;;;;;;5069711;28;20017;-75
2022/02/17 14:06:19;;;;;;;18.27;3.00;;;;;;;;;;5025890;28;20044;-75
2022/02/17 14:08:51;;;;;;;17.98;3.03;;;;;;;;;;5031082;28;20400;-75
2022/02/17 14:11:20;;;;;;;18.23;3.40;;;;;;;;;;5048040;28;20495;-75
2022/02/17 14:13:47;;;;;;;18.93;3.40;;;;;;;;;;5069920;28;20040;-75
2022/02/17 14:16:14;;;;;;;13.75;2.63;;;;;;;;;;5069016;28;20281;-75
2022/02/17 14:18:45;;;;;;;19.73;2.90;;;;;;;;;;5071521;28;20381;-75
2022/02/17 14:21:12;;;;;;;20.73;3.28;;;;;;;;;;5070222;28;20082;-75
2022/02/17 14:23:39;;;;;;;18.15;3.47;;;;;;;;;;5067778;28;20020;-74
2022/02/17 14:26:05;;;;;;;18.30;2.90;;;;;;;;;;5070331;28;20021;-74
2022/02/17 14:28:35;;;;;;;21.88;4.40;;;;;;;;;;5053050;28;20028;-74
2022/02/17 14:31:01;;;;;;;16.48;2.88;;;;;;;;;;5072070;28;20025;-74
2022/02/17 14:33:27;;;;;;;13.35;3.13;;;;;;;;;;5068328;28;20479;-74
2022/02/17 14:35:55;;;;;;;21.40;4.78;;;;;;;;;;5048805;28;20025;-74
2022/02/17 14:38:21;;;;;;;23.80;5.72;;;;;;;;;;5067356;28;20522;-74
2022/02/17 14:40:47;;;;;;;17.80;4.85;;;;;;;;;;5079758;28;20025;-73
2022/02/17 14:43:23;;;;;;;22.73;4.35;;;;;;;;;;5088465;28;20157;-74
2022/02/17 14:45:51;;;;;;;16.05;3.30;;;;;;;;;;5069190;28;20033;-74
2022/02/17 14:48:17;;;;;;;18.63;5.32;;;;;;;;;;5067721;28;20515;-74
2022/02/17 14:50:43;;;;;;;22.55;5.50;;;;;;;;;;5068741;28;20463;-76
2022/02/17 14:53:08;;;;;;;23.25;5.88;;;;;;;;;;5067953;28;20504;-74
2022/02/17 14:55:34;;;;;;;35.15;10.13;;;;;;;;;;5068490;28;20024;-74